sensor_id;sensor_type;location;lat;lon;timestamp;P1;durP1;ratioP1;P2;durP2;ratioP2
4051;SDS011;2040;50.924;11.604;2023-06-22T00:00:49;9.73;;;6.03;;
4051;SDS011;2040;50.924;11.604;2023-06-22T00:03:15;10.20;;;6.50;;
4051;SDS011;2040;50.924;11.604;2023-06-22T00:05:45;11.00;;;6.70;;
4051;SDS011;2040;50.924;11.604;2023-06-22T00:08:11;6.80;;;5.53;;
4051;SDS011;2040;50.924;11.604;2023-06-22T00:10:37;10.50;;;5.73;;
4051;SDS011;2040;50.924;11.604;2023-06-22T00:13:03;8.70;;;5.77;;
4051;SDS011;2040;50.924;11.604;2023-06-22T00:15:29;9.23;;;5.70;;
4051;SDS011;2040;50.924;11.604;2023-06-22T00:17:55;9.43;;;5.90;;
4051;SDS011;2040;50.924;11.604;2023-06-22T00:20:22;10.20;;;5.90;;
4051;SDS011;2040;50.924;11.604;2023-06-22T00:22:47;7.10;;;5.00;;
4051;SDS011;2040;50.924;11.604;2023-06-22T00:25:13;8.23;;;5.43;;
4051;SDS011;2040;50.924;11.604;2023-06-22T00:27:39;13.00;;;6.30;;
4051;SDS011;2040;50.924;11.604;2023-06-22T00:30:04;9.30;;;6.40;;
4051;SDS011;2040;50.924;11.604;2023-06-22T00:32:30;9.97;;;6.30;;
4051;SDS011;2040;50.924;11.604;2023-06-22T00:34:56;15.47;;;6.90;;
4051;SDS011;2040;50.924;11.604;2023-06-22T00:37:21;9.13;;;6.30;;
4051;SDS011;2040;50.924;11.604;2023-06-22T00:39:50;12.40;;;6.30;;
4051;SDS011;2040;50.924;11.604;2023-06-22T00:42:16;11.77;;;7.20;;
4051;SDS011;2040;50.924;11.604;2023-06-22T00:44:42;8.53;;;6.30;;
4051;SDS011;2040;50.924;11.604;2023-06-22T00:47:08;10.10;;;6.13;;
4051;SDS011;2040;50.924;11.604;2023-06-22T00:49:34;10.60;;;6.60;;
4051;SDS011;2040;50.924;11.604;2023-06-22T00:52:00;8.67;;;6.50;;
4051;SDS011;2040;50.924;11.604;2023-06-22T00:54:25;9.63;;;6.23;;
4051;SDS011;2040;50.924;11.604;2023-06-22T00:56:52;16.07;;;7.03;;
4051;SDS011;2040;50.924;11.604;2023-06-22T00:59:21;9.63;;;6.30;;
4051;SDS011;2040;50.924;11.604;2023-06-22T01:01:46;10.30;;;6.77;;
4051;SDS011;2040;50.924;11.604;2023-06-22T01:04:12;11.63;;;6.47;;
4051;SDS011;2040;50.924;11.604;2023-06-22T01:06:45;12.97;;;7.60;;
4051;SDS011;2040;50.924;11.604;2023-06-22T01:09:21;8.87;;;6.83;;
4051;SDS011;2040;50.924;11.604;2023-06-22T01:11:55;10.60;;;6.43;;
4051;SDS011;2040;50.924;11.604;2023-06-22T01:14:28;8.50;;;6.53;;
4051;SDS011;2040;50.924;11.604;2023-06-22T01:17:06;11.27;;;7.00;;
4051;SDS011;2040;50.924;11.604;2023-06-22T01:19:38;7.80;;;5.97;;
4051;SDS011;2040;50.924;11.604;2023-06-22T01:22:10;10.73;;;6.80;;
4051;SDS011;2040;50.924;11.604;2023-06-22T01:24:41;9.50;;;7.20;;
4051;SDS011;2040;50.924;11.604;2023-06-22T01:30:06;11.37;;;7.07;;
4051;SDS011;2040;50.924;11.604;2023-06-22T01:32:35;13.80;;;7.23;;
4051;SDS011;2040;50.924;11.604;2023-06-22T01:35:03;10.10;;;6.80;;
4051;SDS011;2040;50.924;11.604;2023-06-22T01:37:30;10.67;;;6.40;;
4051;SDS011;2040;50.924;11.604;2023-06-22T01:39:58;10.30;;;6.63;;
4051;SDS011;2040;50.924;11.604;2023-06-22T01:42:24;9.53;;;6.37;;
4051;SDS011;2040;50.924;11.604;2023-06-22T01:44:52;10.30;;;6.77;;
4051;SDS011;2040;50.924;11.604;2023-06-22T01:47:18;9.03;;;6.63;;
4051;SDS011;2040;50.924;11.604;2023-06-22T01:49:45;16.07;;;8.43;;
4051;SDS011;2040;50.924;11.604;2023-06-22T01:52:11;15.60;;;7.37;;
4051;SDS011;2040;50.924;11.604;2023-06-22T01:54:38;13.10;;;8.23;;
4051;SDS011;2040;50.924;11.604;2023-06-22T01:57:04;12.33;;;8.33;;
4051;SDS011;2040;50.924;11.604;2023-06-22T01:59:48;11.47;;;7.07;;
4051;SDS011;2040;50.924;11.604;2023-06-22T02:02:22;11.20;;;7.47;;
4051;SDS011;2040;50.924;11.604;2023-06-22T02:07:37;11.47;;;7.83;;
4051;SDS011;2040;50.924;11.604;2023-06-22T02:10:25;13.00;;;7.87;;
4051;SDS011;2040;50.924;11.604;2023-06-22T02:12:52;12.43;;;8.30;;
4051;SDS011;2040;50.924;11.604;2023-06-22T02:15:19;14.50;;;9.43;;
4051;SDS011;2040;50.924;11.604;2023-06-22T02:17:45;13.67;;;9.93;;
4051;SDS011;2040;50.924;11.604;2023-06-22T02:20:12;12.10;;;8.37;;
4051;SDS011;2040;50.924;11.604;2023-06-22T02:22:39;12.53;;;8.60;;
4051;SDS011;2040;50.924;11.604;2023-06-22T02:25:04;15.83;;;9.37;;
4051;SDS011;2040;50.924;11.604;2023-06-22T02:27:30;13.43;;;8.97;;
4051;SDS011;2040;50.924;11.604;2023-06-22T02:29:56;12.67;;;8.63;;
4051;SDS011;2040;50.924;11.604;2023-06-22T02:32:22;13.00;;;8.60;;
4051;SDS011;2040;50.924;11.604;2023-06-22T02:34:47;12.03;;;7.63;;
4051;SDS011;2040;50.924;11.604;2023-06-22T02:37:13;11.60;;;7.67;;
4051;SDS011;2040;50.924;11.604;2023-06-22T02:39:42;11.67;;;8.20;;
4051;SDS011;2040;50.924;11.604;2023-06-22T02:42:07;11.00;;;7.23;;
4051;SDS011;2040;50.924;11.604;2023-06-22T02:44:33;10.43;;;7.43;;
4051;SDS011;2040;50.924;11.604;2023-06-22T02:46:58;12.17;;;7.80;;
4051;SDS011;2040;50.924;11.604;2023-06-22T02:49:24;15.37;;;7.40;;
4051;SDS011;2040;50.924;11.604;2023-06-22T02:51:50;13.60;;;9.43;;
4051;SDS011;2040;50.924;11.604;2023-06-22T02:54:15;14.03;;;9.50;;
4051;SDS011;2040;50.924;11.604;2023-06-22T02:56:41;11.77;;;8.13;;
4051;SDS011;2040;50.924;11.604;2023-06-22T02:59:09;12.20;;;7.73;;
4051;SDS011;2040;50.924;11.604;2023-06-22T03:01:35;11.40;;;8.60;;
4051;SDS011;2040;50.924;11.604;2023-06-22T03:04:07;11.77;;;7.93;;
4051;SDS011;2040;50.924;11.604;2023-06-22T03:06:33;11.90;;;8.23;;
4051;SDS011;2040;50.924;11.604;2023-06-22T03:09:00;11.50;;;7.90;;
4051;SDS011;2040;50.924;11.604;2023-06-22T03:11:28;11.80;;;7.63;;
4051;SDS011;2040;50.924;11.604;2023-06-22T03:13:54;9.90;;;6.60;;
4051;SDS011;2040;50.924;11.604;2023-06-22T03:16:20;11.43;;;7.53;;
4051;SDS011;2040;50.924;11.604;2023-06-22T03:18:45;13.77;;;8.20;;
4051;SDS011;2040;50.924;11.604;2023-06-22T03:21:11;10.13;;;7.27;;
4051;SDS011;2040;50.924;11.604;2023-06-22T03:23:37;12.93;;;7.77;;
4051;SDS011;2040;50.924;11.604;2023-06-22T03:26:02;10.20;;;7.27;;
4051;SDS011;2040;50.924;11.604;2023-06-22T03:28:29;9.30;;;7.20;;
4051;SDS011;2040;50.924;11.604;2023-06-22T03:30:56;10.23;;;6.87;;
4051;SDS011;2040;50.924;11.604;2023-06-22T03:33:22;10.13;;;7.50;;
4051;SDS011;2040;50.924;11.604;2023-06-22T03:35:48;11.10;;;7.17;;
4051;SDS011;2040;50.924;11.604;2023-06-22T03:38:14;14.47;;;7.43;;
4051;SDS011;2040;50.924;11.604;2023-06-22T03:40:41;11.53;;;7.93;;
4051;SDS011;2040;50.924;11.604;2023-06-22T03:43:06;13.37;;;8.53;;
4051;SDS011;2040;50.924;11.604;2023-06-22T03:45:32;14.80;;;9.20;;
4051;SDS011;2040;50.924;11.604;2023-06-22T03:47:57;15.60;;;10.53;;
4051;SDS011;2040;50.924;11.604;2023-06-22T03:50:23;15.00;;;9.33;;
4051;SDS011;2040;50.924;11.604;2023-06-22T03:52:48;13.97;;;9.33;;
4051;SDS011;2040;50.924;11.604;2023-06-22T03:55:16;14.30;;;9.03;;
4051;SDS011;2040;50.924;11.604;2023-06-22T03:57:42;16.10;;;9.27;;
4051;SDS011;2040;50.924;11.604;2023-06-22T04:00:07;16.73;;;9.27;;
4051;SDS011;2040;50.924;11.604;2023-06-22T04:02:34;12.80;;;9.47;;
4051;SDS011;2040;50.924;11.604;2023-06-22T04:05:00;22.00;;;10.30;;
4051;SDS011;2040;50.924;11.604;2023-06-22T04:07:25;13.97;;;9.33;;
4051;SDS011;2040;50.924;11.604;2023-06-22T04:09:51;15.27;;;10.10;;
4051;SDS011;2040;50.924;11.604;2023-06-22T04:12:16;13.90;;;8.70;;
4051;SDS011;2040;50.924;11.604;2023-06-22T04:14:42;13.17;;;8.50;;
4051;SDS011;2040;50.924;11.604;2023-06-22T04:17:08;13.40;;;9.00;;
4051;SDS011;2040;50.924;11.604;2023-06-22T04:19:33;13.83;;;9.00;;
4051;SDS011;2040;50.924;11.604;2023-06-22T04:21:59;15.60;;;8.37;;
4051;SDS011;2040;50.924;11.604;2023-06-22T04:24:24;14.47;;;7.50;;
4051;SDS011;2040;50.924;11.604;2023-06-22T04:26:50;15.90;;;7.83;;
4051;SDS011;2040;50.924;11.604;2023-06-22T04:29:19;14.83;;;8.50;;
4051;SDS011;2040;50.924;11.604;2023-06-22T04:31:45;11.67;;;8.27;;
4051;SDS011;2040;50.924;11.604;2023-06-22T04:34:15;11.27;;;7.97;;
4051;SDS011;2040;50.924;11.604;2023-06-22T04:36:42;12.03;;;8.13;;
4051;SDS011;2040;50.924;11.604;2023-06-22T04:39:08;14.13;;;7.83;;
4051;SDS011;2040;50.924;11.604;2023-06-22T04:41:37;17.17;;;8.70;;
4051;SDS011;2040;50.924;11.604;2023-06-22T04:44:09;15.67;;;8.97;;
4051;SDS011;2040;50.924;11.604;2023-06-22T04:46:39;17.20;;;10.73;;
4051;SDS011;2040;50.924;11.604;2023-06-22T04:49:08;16.97;;;9.90;;
4051;SDS011;2040;50.924;11.604;2023-06-22T04:51:40;19.53;;;10.30;;
4051;SDS011;2040;50.924;11.604;2023-06-22T04:54:07;13.17;;;8.90;;
4051;SDS011;2040;50.924;11.604;2023-06-22T04:56:34;14.07;;;8.60;;
4051;SDS011;2040;50.924;11.604;2023-06-22T04:59:00;17.47;;;9.83;;
4051;SDS011;2040;50.924;11.604;2023-06-22T05:01:26;14.50;;;9.57;;
4051;SDS011;2040;50.924;11.604;2023-06-22T05:03:51;14.00;;;9.70;;
4051;SDS011;2040;50.924;11.604;2023-06-22T05:06:23;16.43;;;10.33;;
4051;SDS011;2040;50.924;11.604;2023-06-22T05:08:51;20.00;;;10.90;;
4051;SDS011;2040;50.924;11.604;2023-06-22T05:11:24;13.60;;;9.50;;
4051;SDS011;2040;50.924;11.604;2023-06-22T05:13:50;13.30;;;8.10;;
4051;SDS011;2040;50.924;11.604;2023-06-22T05:16:16;15.77;;;10.13;;
4051;SDS011;2040;50.924;11.604;2023-06-22T05:18:41;11.57;;;8.90;;
4051;SDS011;2040;50.924;11.604;2023-06-22T05:21:08;12.20;;;8.50;;
4051;SDS011;2040;50.924;11.604;2023-06-22T05:23:34;15.60;;;10.40;;
4051;SDS011;2040;50.924;11.604;2023-06-22T05:25:59;13.17;;;9.03;;
4051;SDS011;2040;50.924;11.604;2023-06-22T05:28:25;16.03;;;11.00;;
4051;SDS011;2040;50.924;11.604;2023-06-22T05:30:51;13.37;;;9.03;;
4051;SDS011;2040;50.924;11.604;2023-06-22T05:33:16;20.40;;;10.30;;
4051;SDS011;2040;50.924;11.604;2023-06-22T05:35:42;19.70;;;10.43;;
4051;SDS011;2040;50.924;11.604;2023-06-22T05:38:07;16.40;;;10.00;;
4051;SDS011;2040;50.924;11.604;2023-06-22T05:40:33;16.23;;;10.83;;
4051;SDS011;2040;50.924;11.604;2023-06-22T05:42:58;16.13;;;10.30;;
4051;SDS011;2040;50.924;11.604;2023-06-22T05:45:26;12.83;;;9.53;;
4051;SDS011;2040;50.924;11.604;2023-06-22T05:47:53;16.80;;;10.87;;
4051;SDS011;2040;50.924;11.604;2023-06-22T05:50:18;14.40;;;9.60;;
4051;SDS011;2040;50.924;11.604;2023-06-22T05:52:44;14.57;;;10.00;;
4051;SDS011;2040;50.924;11.604;2023-06-22T05:55:09;20.63;;;10.63;;
4051;SDS011;2040;50.924;11.604;2023-06-22T05:57:35;14.70;;;10.03;;
4051;SDS011;2040;50.924;11.604;2023-06-22T06:00:00;16.30;;;10.37;;
4051;SDS011;2040;50.924;11.604;2023-06-22T06:02:30;15.10;;;9.43;;
4051;SDS011;2040;50.924;11.604;2023-06-22T06:04:56;16.13;;;9.30;;
4051;SDS011;2040;50.924;11.604;2023-06-22T06:07:21;20.60;;;11.20;;
4051;SDS011;2040;50.924;11.604;2023-06-22T06:09:47;20.60;;;10.50;;
4051;SDS011;2040;50.924;11.604;2023-06-22T06:12:13;15.00;;;9.60;;
4051;SDS011;2040;50.924;11.604;2023-06-22T06:14:39;14.03;;;10.13;;
4051;SDS011;2040;50.924;11.604;2023-06-22T06:17:05;16.87;;;8.60;;
4051;SDS011;2040;50.924;11.604;2023-06-22T06:19:30;14.63;;;10.50;;
4051;SDS011;2040;50.924;11.604;2023-06-22T06:21:56;22.90;;;10.03;;
4051;SDS011;2040;50.924;11.604;2023-06-22T06:24:22;15.07;;;9.30;;
4051;SDS011;2040;50.924;11.604;2023-06-22T06:26:47;22.23;;;9.90;;
4051;SDS011;2040;50.924;11.604;2023-06-22T06:29:13;19.13;;;11.60;;
4051;SDS011;2040;50.924;11.604;2023-06-22T06:31:41;16.40;;;9.27;;
4051;SDS011;2040;50.924;11.604;2023-06-22T06:34:07;16.13;;;10.60;;
4051;SDS011;2040;50.924;11.604;2023-06-22T06:36:32;16.07;;;9.50;;
4051;SDS011;2040;50.924;11.604;2023-06-22T06:38:58;15.53;;;10.00;;
4051;SDS011;2040;50.924;11.604;2023-06-22T06:41:23;15.70;;;10.53;;
4051;SDS011;2040;50.924;11.604;2023-06-22T06:43:49;16.00;;;10.03;;
4051;SDS011;2040;50.924;11.604;2023-06-22T06:46:15;23.90;;;10.93;;
4051;SDS011;2040;50.924;11.604;2023-06-22T06:48:40;14.53;;;9.20;;
4051;SDS011;2040;50.924;11.604;2023-06-22T06:51:06;19.00;;;11.07;;
4051;SDS011;2040;50.924;11.604;2023-06-22T06:53:34;22.27;;;11.10;;
4051;SDS011;2040;50.924;11.604;2023-06-22T06:56:00;18.67;;;12.03;;
4051;SDS011;2040;50.924;11.604;2023-06-22T06:58:26;16.03;;;11.00;;
4051;SDS011;2040;50.924;11.604;2023-06-22T07:00:51;19.37;;;12.37;;
4051;SDS011;2040;50.924;11.604;2023-06-22T07:03:17;19.30;;;9.90;;
4051;SDS011;2040;50.924;11.604;2023-06-22T07:05:42;21.50;;;10.10;;
4051;SDS011;2040;50.924;11.604;2023-06-22T07:08:08;19.53;;;11.00;;
4051;SDS011;2040;50.924;11.604;2023-06-22T07:10:34;14.67;;;10.20;;
4051;SDS011;2040;50.924;11.604;2023-06-22T07:12:59;14.50;;;10.80;;
4051;SDS011;2040;50.924;11.604;2023-06-22T07:15:25;17.17;;;10.03;;
4051;SDS011;2040;50.924;11.604;2023-06-22T07:17:50;18.67;;;10.00;;
4051;SDS011;2040;50.924;11.604;2023-06-22T07:20:16;17.73;;;10.17;;
4051;SDS011;2040;50.924;11.604;2023-06-22T07:22:43;16.60;;;10.30;;
4051;SDS011;2040;50.924;11.604;2023-06-22T07:25:09;20.63;;;10.67;;
4051;SDS011;2040;50.924;11.604;2023-06-22T07:27:39;17.87;;;12.50;;
4051;SDS011;2040;50.924;11.604;2023-06-22T07:30:10;21.67;;;11.20;;
4051;SDS011;2040;50.924;11.604;2023-06-22T07:32:36;14.60;;;10.47;;
4051;SDS011;2040;50.924;11.604;2023-06-22T07:35:02;16.93;;;10.80;;
4051;SDS011;2040;50.924;11.604;2023-06-22T07:37:29;16.70;;;10.50;;
4051;SDS011;2040;50.924;11.604;2023-06-22T07:39:55;20.70;;;9.97;;
4051;SDS011;2040;50.924;11.604;2023-06-22T07:42:26;16.37;;;10.77;;
4051;SDS011;2040;50.924;11.604;2023-06-22T07:44:52;17.20;;;11.83;;
4051;SDS011;2040;50.924;11.604;2023-06-22T07:47:19;16.83;;;10.47;;
4051;SDS011;2040;50.924;11.604;2023-06-22T07:49:48;17.37;;;10.57;;
4051;SDS011;2040;50.924;11.604;2023-06-22T07:52:13;14.20;;;9.00;;
4051;SDS011;2040;50.924;11.604;2023-06-22T07:54:39;13.03;;;9.30;;
4051;SDS011;2040;50.924;11.604;2023-06-22T07:57:05;18.10;;;9.30;;
4051;SDS011;2040;50.924;11.604;2023-06-22T07:59:30;10.70;;;8.73;;
4051;SDS011;2040;50.924;11.604;2023-06-22T08:01:56;11.00;;;8.37;;
4051;SDS011;2040;50.924;11.604;2023-06-22T08:04:22;13.70;;;8.13;;
4051;SDS011;2040;50.924;11.604;2023-06-22T08:06:47;14.80;;;9.10;;
4051;SDS011;2040;50.924;11.604;2023-06-22T08:09:14;12.13;;;7.97;;
4051;SDS011;2040;50.924;11.604;2023-06-22T08:11:39;15.40;;;8.80;;
4051;SDS011;2040;50.924;11.604;2023-06-22T08:14:05;11.50;;;8.57;;
4051;SDS011;2040;50.924;11.604;2023-06-22T08:16:30;13.13;;;8.97;;
4051;SDS011;2040;50.924;11.604;2023-06-22T08:18:56;16.93;;;8.33;;
4051;SDS011;2040;50.924;11.604;2023-06-22T08:21:22;13.30;;;8.87;;
4051;SDS011;2040;50.924;11.604;2023-06-22T08:23:48;12.00;;;7.10;;
4051;SDS011;2040;50.924;11.604;2023-06-22T08:26:14;10.47;;;6.43;;
4051;SDS011;2040;50.924;11.604;2023-06-22T08:28:39;8.73;;;5.73;;
4051;SDS011;2040;50.924;11.604;2023-06-22T08:31:05;11.83;;;5.90;;
4051;SDS011;2040;50.924;11.604;2023-06-22T08:33:31;8.87;;;6.40;;
4051;SDS011;2040;50.924;11.604;2023-06-22T08:35:57;8.97;;;6.07;;
4051;SDS011;2040;50.924;11.604;2023-06-22T08:38:24;8.13;;;5.73;;
4051;SDS011;2040;50.924;11.604;2023-06-22T08:40:50;7.87;;;5.07;;
4051;SDS011;2040;50.924;11.604;2023-06-22T08:43:15;9.37;;;5.47;;
4051;SDS011;2040;50.924;11.604;2023-06-22T08:45:41;7.83;;;5.87;;
4051;SDS011;2040;50.924;11.604;2023-06-22T08:48:06;8.70;;;5.47;;
4051;SDS011;2040;50.924;11.604;2023-06-22T08:50:32;6.47;;;4.97;;
4051;SDS011;2040;50.924;11.604;2023-06-22T08:52:57;7.60;;;5.70;;
4051;SDS011;2040;50.924;11.604;2023-06-22T08:55:23;6.60;;;5.33;;
4051;SDS011;2040;50.924;11.604;2023-06-22T08:57:48;10.90;;;5.87;;
4051;SDS011;2040;50.924;11.604;2023-06-22T09:00:14;9.23;;;6.30;;
4051;SDS011;2040;50.924;11.604;2023-06-22T09:02:46;7.50;;;5.07;;
4051;SDS011;2040;50.924;11.604;2023-06-22T09:05:12;8.70;;;5.97;;
4051;SDS011;2040;50.924;11.604;2023-06-22T09:07:38;6.30;;;5.27;;
4051;SDS011;2040;50.924;11.604;2023-06-22T09:10:03;7.17;;;5.60;;
4051;SDS011;2040;50.924;11.604;2023-06-22T09:12:30;7.77;;;5.13;;
4051;SDS011;2040;50.924;11.604;2023-06-22T09:14:57;7.13;;;5.20;;
4051;SDS011;2040;50.924;11.604;2023-06-22T09:17:26;7.70;;;5.13;;
4051;SDS011;2040;50.924;11.604;2023-06-22T09:19:52;9.70;;;5.23;;
4051;SDS011;2040;50.924;11.604;2023-06-22T09:22:17;9.93;;;6.57;;
4051;SDS011;2040;50.924;11.604;2023-06-22T09:24:43;9.27;;;5.30;;
4051;SDS011;2040;50.924;11.604;2023-06-22T09:27:08;10.70;;;6.40;;
4051;SDS011;2040;50.924;11.604;2023-06-22T09:29:34;7.93;;;5.60;;
4051;SDS011;2040;50.924;11.604;2023-06-22T09:31:59;6.97;;;5.27;;
4051;SDS011;2040;50.924;11.604;2023-06-22T09:34:25;9.90;;;5.40;;
4051;SDS011;2040;50.924;11.604;2023-06-22T09:36:51;9.97;;;5.10;;
4051;SDS011;2040;50.924;11.604;2023-06-22T09:39:19;9.80;;;5.80;;
4051;SDS011;2040;50.924;11.604;2023-06-22T09:41:45;7.90;;;6.13;;
4051;SDS011;2040;50.924;11.604;2023-06-22T09:44:11;10.17;;;5.83;;
4051;SDS011;2040;50.924;11.604;2023-06-22T09:46:36;10.63;;;5.53;;
4051;SDS011;2040;50.924;11.604;2023-06-22T09:49:02;9.37;;;6.20;;
4051;SDS011;2040;50.924;11.604;2023-06-22T09:51:27;8.93;;;5.27;;
4051;SDS011;2040;50.924;11.604;2023-06-22T09:53:53;8.27;;;5.67;;
4051;SDS011;2040;50.924;11.604;2023-06-22T09:56:19;7.63;;;5.73;;
4051;SDS011;2040;50.924;11.604;2023-06-22T09:58:45;8.80;;;5.40;;
4051;SDS011;2040;50.924;11.604;2023-06-22T10:01:12;7.00;;;4.80;;
4051;SDS011;2040;50.924;11.604;2023-06-22T10:03:41;7.73;;;5.57;;
4051;SDS011;2040;50.924;11.604;2023-06-22T10:06:07;10.20;;;6.13;;
4051;SDS011;2040;50.924;11.604;2023-06-22T10:08:34;6.30;;;4.93;;
4051;SDS011;2040;50.924;11.604;2023-06-22T10:11:00;6.37;;;5.47;;
4051;SDS011;2040;50.924;11.604;2023-06-22T10:13:26;7.17;;;5.57;;
4051;SDS011;2040;50.924;11.604;2023-06-22T10:15:52;9.23;;;5.40;;
4051;SDS011;2040;50.924;11.604;2023-06-22T10:18:18;11.27;;;5.50;;
4051;SDS011;2040;50.924;11.604;2023-06-22T10:20:46;8.23;;;5.20;;
4051;SDS011;2040;50.924;11.604;2023-06-22T10:23:12;10.70;;;6.00;;
4051;SDS011;2040;50.924;11.604;2023-06-22T10:25:38;7.60;;;5.00;;
4051;SDS011;2040;50.924;11.604;2023-06-22T10:28:04;6.80;;;4.97;;
4051;SDS011;2040;50.924;11.604;2023-06-22T10:30:29;23.23;;;6.10;;
4051;SDS011;2040;50.924;11.604;2023-06-22T10:32:55;7.50;;;5.50;;
4051;SDS011;2040;50.924;11.604;2023-06-22T10:35:21;8.57;;;6.43;;
4051;SDS011;2040;50.924;11.604;2023-06-22T10:37:46;8.57;;;6.37;;
4051;SDS011;2040;50.924;11.604;2023-06-22T10:40:12;9.43;;;5.27;;
4051;SDS011;2040;50.924;11.604;2023-06-22T10:42:40;6.37;;;4.90;;
4051;SDS011;2040;50.924;11.604;2023-06-22T10:45:06;8.87;;;5.83;;
4051;SDS011;2040;50.924;11.604;2023-06-22T10:47:33;11.20;;;5.80;;
4051;SDS011;2040;50.924;11.604;2023-06-22T10:49:58;8.90;;;5.90;;
4051;SDS011;2040;50.924;11.604;2023-06-22T10:52:24;19.13;;;6.20;;
4051;SDS011;2040;50.924;11.604;2023-06-22T10:54:50;9.70;;;6.00;;
4051;SDS011;2040;50.924;11.604;2023-06-22T10:57:15;7.53;;;6.17;;
4051;SDS011;2040;50.924;11.604;2023-06-22T10:59:41;9.57;;;5.77;;
4051;SDS011;2040;50.924;11.604;2023-06-22T11:02:07;8.57;;;6.07;;
4051;SDS011;2040;50.924;11.604;2023-06-22T11:04:32;8.80;;;5.77;;
4051;SDS011;2040;50.924;11.604;2023-06-22T11:06:58;6.87;;;5.90;;
4051;SDS011;2040;50.924;11.604;2023-06-22T11:09:23;12.03;;;5.70;;
4051;SDS011;2040;50.924;11.604;2023-06-22T11:11:50;6.70;;;5.33;;
4051;SDS011;2040;50.924;11.604;2023-06-22T11:14:18;8.23;;;6.47;;
4051;SDS011;2040;50.924;11.604;2023-06-22T11:16:44;6.57;;;5.83;;
4051;SDS011;2040;50.924;11.604;2023-06-22T11:19:11;6.87;;;6.17;;
4051;SDS011;2040;50.924;11.604;2023-06-22T11:21:37;7.10;;;5.73;;
4051;SDS011;2040;50.924;11.604;2023-06-22T11:24:02;7.33;;;6.00;;
4051;SDS011;2040;50.924;11.604;2023-06-22T11:26:28;7.87;;;5.43;;
4051;SDS011;2040;50.924;11.604;2023-06-22T11:28:54;8.20;;;5.70;;
4051;SDS011;2040;50.924;11.604;2023-06-22T11:31:19;7.03;;;5.17;;
4051;SDS011;2040;50.924;11.604;2023-06-22T11:33:45;7.10;;;5.60;;
4051;SDS011;2040;50.924;11.604;2023-06-22T11:36:12;8.73;;;5.83;;
4051;SDS011;2040;50.924;11.604;2023-06-22T11:38:37;7.63;;;6.00;;
4051;SDS011;2040;50.924;11.604;2023-06-22T11:41:05;7.03;;;5.80;;
4051;SDS011;2040;50.924;11.604;2023-06-22T11:43:31;10.70;;;6.27;;
4051;SDS011;2040;50.924;11.604;2023-06-22T11:45:57;9.33;;;6.97;;
4051;SDS011;2040;50.924;11.604;2023-06-22T11:48:23;9.60;;;5.97;;
4051;SDS011;2040;50.924;11.604;2023-06-22T11:50:49;6.80;;;5.70;;
4051;SDS011;2040;50.924;11.604;2023-06-22T11:53:15;10.30;;;6.40;;
4051;SDS011;2040;50.924;11.604;2023-06-22T11:55:42;7.60;;;5.77;;
4051;SDS011;2040;50.924;11.604;2023-06-22T11:58:10;7.97;;;5.93;;
4051;SDS011;2040;50.924;11.604;2023-06-22T12:00:36;5.83;;;5.23;;
4051;SDS011;2040;50.924;11.604;2023-06-22T12:03:02;7.23;;;6.10;;
4051;SDS011;2040;50.924;11.604;2023-06-22T12:05:28;7.43;;;5.83;;
4051;SDS011;2040;50.924;11.604;2023-06-22T12:07:53;9.17;;;5.83;;
4051;SDS011;2040;50.924;11.604;2023-06-22T12:10:19;9.30;;;6.37;;
4051;SDS011;2040;50.924;11.604;2023-06-22T12:12:46;6.27;;;5.67;;
4051;SDS011;2040;50.924;11.604;2023-06-22T12:15:11;10.60;;;6.77;;
4051;SDS011;2040;50.924;11.604;2023-06-22T12:17:45;10.70;;;6.40;;
4051;SDS011;2040;50.924;11.604;2023-06-22T12:20:10;7.70;;;5.60;;
4051;SDS011;2040;50.924;11.604;2023-06-22T12:22:40;12.10;;;5.97;;
4051;SDS011;2040;50.924;11.604;2023-06-22T12:25:09;12.00;;;6.53;;
4051;SDS011;2040;50.924;11.604;2023-06-22T12:27:35;11.50;;;6.10;;
4051;SDS011;2040;50.924;11.604;2023-06-22T12:30:04;14.40;;;6.20;;
4051;SDS011;2040;50.924;11.604;2023-06-22T12:32:41;17.77;;;6.30;;
4051;SDS011;2040;50.924;11.604;2023-06-22T12:35:09;8.37;;;6.50;;
4051;SDS011;2040;50.924;11.604;2023-06-22T12:37:49;6.73;;;5.40;;
4051;SDS011;2040;50.924;11.604;2023-06-22T12:40:30;8.30;;;6.80;;
4051;SDS011;2040;50.924;11.604;2023-06-22T12:43:03;11.53;;;6.37;;
4051;SDS011;2040;50.924;11.604;2023-06-22T12:45:32;8.23;;;5.53;;
4051;SDS011;2040;50.924;11.604;2023-06-22T12:48:11;10.00;;;6.90;;
4051;SDS011;2040;50.924;11.604;2023-06-22T12:50:43;13.80;;;6.70;;
4051;SDS011;2040;50.924;11.604;2023-06-22T12:53:22;7.80;;;6.83;;
4051;SDS011;2040;50.924;11.604;2023-06-22T12:55:53;8.60;;;6.23;;
4051;SDS011;2040;50.924;11.604;2023-06-22T12:58:19;13.60;;;6.40;;
4051;SDS011;2040;50.924;11.604;2023-06-22T13:00:48;14.13;;;7.47;;
4051;SDS011;2040;50.924;11.604;2023-06-22T13:03:45;7.67;;;6.33;;
4051;SDS011;2040;50.924;11.604;2023-06-22T13:06:11;9.53;;;6.80;;
4051;SDS011;2040;50.924;11.604;2023-06-22T13:08:42;9.17;;;6.90;;
4051;SDS011;2040;50.924;11.604;2023-06-22T13:11:14;8.37;;;5.67;;
4051;SDS011;2040;50.924;11.604;2023-06-22T13:13:43;8.07;;;6.20;;
4051;SDS011;2040;50.924;11.604;2023-06-22T13:16:16;7.90;;;6.70;;
4051;SDS011;2040;50.924;11.604;2023-06-22T13:18:44;7.90;;;7.10;;
4051;SDS011;2040;50.924;11.604;2023-06-22T13:21:12;10.67;;;6.97;;
4051;SDS011;2040;50.924;11.604;2023-06-22T13:23:41;12.83;;;7.13;;
4051;SDS011;2040;50.924;11.604;2023-06-22T13:26:10;9.27;;;6.60;;
4051;SDS011;2040;50.924;11.604;2023-06-22T13:28:35;11.53;;;6.37;;
4051;SDS011;2040;50.924;11.604;2023-06-22T13:31:06;8.00;;;6.93;;
4051;SDS011;2040;50.924;11.604;2023-06-22T13:33:34;8.00;;;6.60;;
4051;SDS011;2040;50.924;11.604;2023-06-22T13:36:00;10.30;;;6.43;;
4051;SDS011;2040;50.924;11.604;2023-06-22T13:47:48;8.47;;;6.40;;
4051;SDS011;2040;50.924;11.604;2023-06-22T13:50:19;13.23;;;6.30;;
4051;SDS011;2040;50.924;11.604;2023-06-22T13:53:07;6.63;;;5.70;;
4051;SDS011;2040;50.924;11.604;2023-06-22T13:55:38;8.97;;;6.47;;
4051;SDS011;2040;50.924;11.604;2023-06-22T13:58:49;8.53;;;6.37;;
4051;SDS011;2040;50.924;11.604;2023-06-22T14:01:16;8.93;;;6.63;;
4051;SDS011;2040;50.924;11.604;2023-06-22T14:04:18;10.07;;;6.00;;
4051;SDS011;2040;50.924;11.604;2023-06-22T14:06:50;9.57;;;6.23;;
4051;SDS011;2040;50.924;11.604;2023-06-22T14:09:27;8.20;;;5.87;;
4051;SDS011;2040;50.924;11.604;2023-06-22T14:11:54;8.27;;;5.93;;
4051;SDS011;2040;50.924;11.604;2023-06-22T14:14:20;8.77;;;6.87;;
4051;SDS011;2040;50.924;11.604;2023-06-22T14:16:45;10.90;;;6.30;;
4051;SDS011;2040;50.924;11.604;2023-06-22T14:19:12;8.53;;;5.90;;
4051;SDS011;2040;50.924;11.604;2023-06-22T14:21:38;9.13;;;5.30;;
4051;SDS011;2040;50.924;11.604;2023-06-22T14:24:03;11.70;;;6.27;;
4051;SDS011;2040;50.924;11.604;2023-06-22T14:26:29;9.67;;;6.90;;
4051;SDS011;2040;50.924;11.604;2023-06-22T14:28:55;10.40;;;6.03;;
4051;SDS011;2040;50.924;11.604;2023-06-22T14:31:21;11.60;;;6.20;;
4051;SDS011;2040;50.924;11.604;2023-06-22T14:33:47;11.10;;;6.10;;
4051;SDS011;2040;50.924;11.604;2023-06-22T14:36:14;7.33;;;6.07;;
4051;SDS011;2040;50.924;11.604;2023-06-22T14:38:40;7.60;;;5.87;;
4051;SDS011;2040;50.924;11.604;2023-06-22T14:41:06;7.40;;;6.10;;
4051;SDS011;2040;50.924;11.604;2023-06-22T14:43:31;7.10;;;6.20;;
4051;SDS011;2040;50.924;11.604;2023-06-22T14:45:57;8.10;;;6.10;;
4051;SDS011;2040;50.924;11.604;2023-06-22T14:48:22;6.63;;;5.50;;
4051;SDS011;2040;50.924;11.604;2023-06-22T14:50:48;7.90;;;5.70;;
4051;SDS011;2040;50.924;11.604;2023-06-22T14:53:14;10.13;;;5.87;;
4051;SDS011;2040;50.924;11.604;2023-06-22T14:55:40;12.23;;;6.33;;
4051;SDS011;2040;50.924;11.604;2023-06-22T14:58:05;9.50;;;6.30;;
4051;SDS011;2040;50.924;11.604;2023-06-22T15:00:31;7.43;;;5.93;;
4051;SDS011;2040;50.924;11.604;2023-06-22T15:02:56;10.70;;;5.67;;
4051;SDS011;2040;50.924;11.604;2023-06-22T15:05:24;9.27;;;6.10;;